DLH883 EETN-EDDF
Flight info
| Callsign | DLH883 |
|---|---|
| Flight time | N/A |
| Altitude | 36000 |
| Route | LONSA DCT SUVIX DCT PIMEX P739 DEREX DCT KOLJA DCT GOSOT DCT BANUB DCT POVEL DCT RIMET/N0414F310 T157 KOKEB/N0363F230 T157 KERAX KERAX5D |
| Aircraft | A320/M-SDE2E3FGIJ1LORWXYZ/HB1 |
Departure
| Time | 2026-05-01 15:12 |
|---|---|
| Airport | Lennart Meri Tallinn Airport (EETN) |
Arrival
| Time | N/A |
|---|---|
| Airport | Frankfurt Main Airport (EDDF) |
| Time | Latitude | Longitude | Altitude | Speed | Heading |
|---|---|---|---|---|---|
| 2026-05-01 14:23 | 59.41586 | 24.80206 | 162 ft | 0 kts | 0° |
| 2026-05-01 15:01 | 59.41585 | 24.80206 | 162 ft | 1 kts | 0° |
| 2026-05-01 15:01 | 59.41561 | 24.80204 | 162 ft | 4 kts | 8° |
| 2026-05-01 15:01 | 59.41537 | 24.80190 | 162 ft | 4 kts | 42° |
| 2026-05-01 15:02 | 59.41528 | 24.80162 | 162 ft | 0 kts | 90° |
| 2026-05-01 15:04 | 59.41528 | 24.80163 | 162 ft | 0 kts | 90° |
| 2026-05-01 15:04 | 59.41528 | 24.80176 | 162 ft | 3 kts | 90° |
| 2026-05-01 15:05 | 59.41528 | 24.80309 | 162 ft | 12 kts | 90° |
| 2026-05-01 15:05 | 59.41519 | 24.80471 | 162 ft | 14 kts | 101° |
| 2026-05-01 15:05 | 59.41507 | 24.80706 | 162 ft | 17 kts | 89° |
| 2026-05-01 15:05 | 59.41507 | 24.80930 | 162 ft | 16 kts | 90° |
| 2026-05-01 15:06 | 59.41507 | 24.81133 | 162 ft | 14 kts | 91° |
| 2026-05-01 15:06 | 59.41506 | 24.81389 | 162 ft | 24 kts | 90° |
| 2026-05-01 15:06 | 59.41504 | 24.81704 | 162 ft | 22 kts | 90° |
| 2026-05-01 15:06 | 59.41503 | 24.81993 | 162 ft | 20 kts | 90° |
| 2026-05-01 15:07 | 59.41503 | 24.82267 | 162 ft | 23 kts | 90° |
| 2026-05-01 15:07 | 59.41502 | 24.82644 | 162 ft | 29 kts | 91° |
| 2026-05-01 15:07 | 59.41499 | 24.83041 | 162 ft | 29 kts | 90° |
| 2026-05-01 15:07 | 59.41500 | 24.83424 | 162 ft | 27 kts | 90° |
| 2026-05-01 15:08 | 59.41499 | 24.83778 | 162 ft | 25 kts | 90° |
| 2026-05-01 15:08 | 59.41498 | 24.84102 | 162 ft | 23 kts | 90° |
| 2026-05-01 15:08 | 59.41497 | 24.84398 | 162 ft | 21 kts | 90° |
| 2026-05-01 15:08 | 59.41498 | 24.84696 | 162 ft | 26 kts | 89° |
| 2026-05-01 15:09 | 59.41495 | 24.85041 | 162 ft | 24 kts | 91° |
| 2026-05-01 15:09 | 59.41494 | 24.85354 | 162 ft | 23 kts | 90° |
| 2026-05-01 15:09 | 59.41493 | 24.85731 | 162 ft | 30 kts | 90° |
| 2026-05-01 15:09 | 59.41492 | 24.86134 | 162 ft | 29 kts | 90° |
| 2026-05-01 15:10 | 59.41491 | 24.86500 | 162 ft | 15 kts | 90° |
| 2026-05-01 15:10 | 59.41453 | 24.86710 | 162 ft | 8 kts | 172° |
| 2026-05-01 15:10 | 59.41399 | 24.86709 | 162 ft | 10 kts | 180° |
| 2026-05-01 15:11 | 59.41323 | 24.86693 | 162 ft | 10 kts | 222° |
| 2026-05-01 15:11 | 59.41318 | 24.85741 | 163 ft | 89 kts | 270° |
| 2026-05-01 15:11 | 59.41321 | 24.84150 | 161 ft | 141 kts | 270° |
| 2026-05-01 15:12 | 59.41318 | 24.81998 | 426 ft | 162 kts | 271° |
| 2026-05-01 15:12 | 59.41229 | 24.77629 | 1851 ft | 161 kts | 250° |
| 2026-05-01 15:12 | 59.40686 | 24.75700 | 2516 ft | 162 kts | 239° |
| 2026-05-01 15:13 | 59.38674 | 24.70189 | 4065 ft | 184 kts | 238° |
| 2026-05-01 15:14 | 59.37027 | 24.65572 | 4726 ft | 230 kts | 239° |
| 2026-05-01 15:14 | 59.36072 | 24.62858 | 5098 ft | 254 kts | 238° |
| 2026-05-01 15:14 | 59.33978 | 24.56872 | 6531 ft | 272 kts | 239° |
| 2026-05-01 15:15 | 59.31819 | 24.50676 | 8161 ft | 279 kts | 240° |
| 2026-05-01 15:15 | 59.29607 | 24.44308 | 9791 ft | 287 kts | 240° |
| 2026-05-01 15:16 | 59.27286 | 24.37596 | 10729 ft | 318 kts | 240° |
| 2026-05-01 15:16 | 59.24721 | 24.30201 | 11800 ft | 337 kts | 240° |
| 2026-05-01 15:17 | 59.22042 | 24.22555 | 13240 ft | 345 kts | 240° |
| 2026-05-01 15:18 | 59.17906 | 24.10800 | 15165 ft | 355 kts | 241° |
| 2026-05-01 15:18 | 59.16500 | 24.06813 | 15776 ft | 359 kts | 241° |
| 2026-05-01 15:19 | 59.12202 | 23.94632 | 17605 ft | 369 kts | 241° |
| 2026-05-01 15:19 | 59.09251 | 23.86322 | 18687 ft | 377 kts | 241° |
| 2026-05-01 15:19 | 59.07760 | 23.82104 | 19192 ft | 379 kts | 243° |
| 2026-05-01 15:20 | 59.04978 | 23.73346 | 20243 ft | 382 kts | 246° |
| 2026-05-01 15:20 | 59.03656 | 23.68929 | 20750 ft | 385 kts | 246° |
| 2026-05-01 15:20 | 59.02308 | 23.64424 | 21248 ft | 388 kts | 246° |
| 2026-05-01 15:21 | 59.00938 | 23.59897 | 21737 ft | 390 kts | 245° |
| 2026-05-01 15:21 | 58.99547 | 23.55353 | 22223 ft | 393 kts | 245° |
| 2026-05-01 15:21 | 58.98136 | 23.50782 | 22708 ft | 395 kts | 245° |
| 2026-05-01 15:21 | 58.96717 | 23.46220 | 23227 ft | 397 kts | 245° |
| 2026-05-01 15:22 | 58.93828 | 23.37023 | 24090 ft | 402 kts | 245° |
| 2026-05-01 15:22 | 58.92373 | 23.32401 | 24459 ft | 404 kts | 245° |
| 2026-05-01 15:22 | 58.90907 | 23.27744 | 24812 ft | 407 kts | 245° |
| 2026-05-01 15:23 | 58.89431 | 23.23058 | 25180 ft | 409 kts | 245° |
| 2026-05-01 15:23 | 58.87944 | 23.18345 | 25556 ft | 411 kts | 245° |
| 2026-05-01 15:23 | 58.86450 | 23.13619 | 25924 ft | 413 kts | 244° |
| 2026-05-01 15:23 | 58.84944 | 23.08874 | 26283 ft | 415 kts | 244° |
| 2026-05-01 15:24 | 58.83430 | 23.04115 | 26640 ft | 417 kts | 244° |
| 2026-05-01 15:24 | 58.81908 | 22.99336 | 26994 ft | 419 kts | 244° |
| 2026-05-01 15:24 | 58.80374 | 22.94523 | 27349 ft | 421 kts | 244° |
| 2026-05-01 15:24 | 58.78832 | 22.89700 | 27694 ft | 424 kts | 244° |
| 2026-05-01 15:25 | 58.77280 | 22.84858 | 28043 ft | 426 kts | 244° |
| 2026-05-01 15:25 | 58.75742 | 22.80059 | 28375 ft | 428 kts | 244° |
| 2026-05-01 15:25 | 58.74174 | 22.75170 | 28718 ft | 430 kts | 244° |
| 2026-05-01 15:25 | 58.72597 | 22.70267 | 29022 ft | 432 kts | 243° |
| 2026-05-01 15:26 | 58.71005 | 22.65343 | 29336 ft | 435 kts | 243° |
| 2026-05-01 15:26 | 58.69402 | 22.60398 | 29653 ft | 437 kts | 243° |
| 2026-05-01 15:26 | 58.67777 | 22.55438 | 29958 ft | 439 kts | 243° |
| 2026-05-01 15:26 | 58.66117 | 22.50483 | 30273 ft | 441 kts | 242° |
| 2026-05-01 15:27 | 58.64441 | 22.45550 | 30541 ft | 442 kts | 242° |
| 2026-05-01 15:27 | 58.62750 | 22.40608 | 30804 ft | 444 kts | 242° |
| 2026-05-01 15:27 | 58.61052 | 22.35648 | 31043 ft | 445 kts | 242° |
| 2026-05-01 15:28 | 58.57650 | 22.25680 | 31611 ft | 446 kts | 242° |
| 2026-05-01 15:28 | 58.55952 | 22.20709 | 31970 ft | 445 kts | 242° |
| 2026-05-01 15:28 | 58.54261 | 22.15766 | 32318 ft | 444 kts | 242° |
| 2026-05-01 15:29 | 58.50887 | 22.05944 | 32896 ft | 444 kts | 242° |
| 2026-05-01 15:29 | 58.49189 | 22.01010 | 33226 ft | 444 kts | 242° |
| 2026-05-01 15:29 | 58.45790 | 21.91183 | 33890 ft | 443 kts | 242° |
| 2026-05-01 15:30 | 58.42389 | 21.81394 | 34496 ft | 442 kts | 242° |
| 2026-05-01 15:31 | 58.35593 | 21.61919 | 35497 ft | 441 kts | 242° |
| 2026-05-01 15:31 | 58.32185 | 21.52210 | 35918 ft | 441 kts | 241° |
| 2026-05-01 15:32 | 58.28766 | 21.42545 | 36196 ft | 438 kts | 241° |
| 2026-05-01 15:32 | 58.25374 | 21.32979 | 36201 ft | 436 kts | 241° |
| 2026-05-01 15:33 | 58.20042 | 21.19095 | 36202 ft | 442 kts | 230° |
| 2026-05-01 15:34 | 58.13514 | 21.06750 | 36186 ft | 442 kts | 229° |